Atwell, West Virginia
Current Conditions -  °F | °C
As of 6:15 PM on Wednesday 22 Oct 2014 (Local Time) from KJFZ Reporting Station
Haze Haze  
Wind Chill: 41°   Ceiling: 800
Heat Index: 45°   Visibility: 5mi
Dew Point: 43°   Wind: 7mph
Humidity: 93%   Direction: 330°NNW
Pressure: 30.19"   Gusts: NA
Location:  37.3433°N, 81.7826°W
Report Text: KJFZ 222215Z AUTO 33006KT 5SM BR BKN008 OVC019 07/06 A3019 RMK AO2 T00700059
Loading
Personal Weather Stations






























Interactive Weather Map
Tropical Storm Tracking
New forecast layout! Learn more

10-Day Weather Forecast

Advertisements
Track Severe Weather on mobile